createdAt,value
2022-08-20T00:01:28.932Z,27.90
2022-08-20T00:05:39.855Z,27.50
2022-08-20T00:09:48.337Z,29.90
2022-08-20T00:13:58.793Z,28.90
2022-08-20T00:18:07.563Z,27.10
2022-08-20T00:22:15.557Z,29.50
2022-08-20T00:26:24.743Z,28.10
2022-08-20T00:30:33.746Z,29.30
2022-08-20T00:34:42.383Z,28.80
2022-08-20T00:38:50.353Z,29.00
2022-08-20T00:43:00.683Z,29.50
2022-08-20T00:47:09.583Z,28.60
2022-08-20T00:51:23.560Z,27.50
2022-08-20T00:55:32.323Z,30.90
2022-08-20T00:59:42.603Z,27.40
2022-08-20T01:03:50.419Z,27.30
2022-08-20T01:07:59.285Z,30.10
2022-08-20T01:12:08.472Z,31.50
2022-08-20T01:16:21.070Z,30.60
2022-08-20T01:20:31.924Z,29.90
2022-08-20T01:24:41.866Z,27.40
2022-08-20T01:28:52.510Z,30.30
2022-08-20T01:33:00.528Z,29.10
2022-08-20T01:37:08.216Z,29.80
2022-08-20T01:41:35.239Z,29.00
2022-08-20T01:45:43.318Z,33.00
2022-08-20T01:49:53.665Z,31.30
2022-08-20T01:54:03.215Z,30.50
2022-08-20T01:58:11.395Z,31.70
2022-08-20T02:02:19.145Z,35.20
2022-08-20T02:06:29.292Z,34.30
2022-08-20T02:10:37.549Z,35.50
2022-08-20T02:14:47.840Z,31.90
2022-08-20T02:18:58.687Z,32.30
2022-08-20T02:23:07.235Z,30.70
2022-08-20T02:27:16.299Z,31.20
2022-08-20T02:31:25.415Z,35.00
2022-08-20T02:35:33.787Z,35.00
2022-08-20T02:39:41.463Z,33.20
2022-08-20T02:43:49.952Z,33.20
2022-08-20T02:47:59.331Z,34.90
2022-08-20T02:52:08.216Z,37.70
2022-08-20T02:56:18.293Z,34.20
2022-08-20T03:00:26.828Z,39.10
2022-08-20T03:04:34.606Z,34.40
2022-08-20T03:08:42.969Z,37.60
2022-08-20T03:12:50.837Z,38.60
2022-08-20T03:16:59.757Z,38.50
2022-08-20T03:21:09.865Z,37.90
2022-08-20T03:25:18.193Z,37.80
2022-08-20T03:29:25.891Z,38.30
2022-08-20T03:33:33.532Z,40.30
2022-08-20T03:37:42.209Z,40.10
2022-08-20T03:41:56.179Z,41.50
2022-08-20T03:46:04.938Z,38.30
2022-08-20T03:50:33.002Z,36.60
2022-08-20T03:54:40.694Z,37.70
2022-08-20T03:58:49.969Z,36.90
2022-08-20T04:02:57.778Z,36.30
2022-08-20T04:07:12.733Z,35.90
2022-08-20T04:11:20.732Z,36.80
2022-08-20T04:15:28.975Z,34.80
2022-08-20T04:19:37.082Z,38.80
2022-08-20T04:23:44.825Z,35.00
2022-08-20T04:27:52.728Z,35.70
2022-08-20T04:32:02.772Z,35.40
2022-08-20T04:36:14.753Z,36.70
2022-08-20T04:40:42.239Z,36.90
2022-08-20T04:44:50.005Z,34.40
2022-08-20T04:48:58.390Z,37.00
2022-08-20T04:53:07.160Z,36.60
2022-08-20T04:57:14.971Z,35.20
2022-08-20T05:01:24.457Z,34.20
2022-08-20T05:05:32.505Z,34.60
2022-08-20T05:09:43.821Z,36.80
2022-08-20T05:13:53.836Z,36.00
2022-08-20T05:18:06.287Z,34.90
2022-08-20T05:22:13.928Z,32.10
2022-08-20T05:26:23.097Z,36.40
2022-08-20T05:30:34.296Z,35.40
2022-08-20T05:34:43.541Z,33.70
2022-08-20T05:38:52.542Z,33.30
2022-08-20T05:43:00.490Z,36.00
2022-08-20T05:47:09.497Z,33.60
2022-08-20T05:51:18.877Z,35.00
2022-08-20T05:55:26.635Z,36.70
2022-08-20T05:59:36.971Z,38.10
2022-08-20T06:04:02.149Z,36.90
2022-08-20T06:08:12.015Z,35.60
2022-08-20T06:12:21.287Z,37.50
2022-08-20T06:16:29.636Z,40.70
2022-08-20T06:20:40.144Z,36.30
2022-08-20T06:24:48.197Z,39.00
2022-08-20T06:28:55.947Z,39.90
2022-08-20T06:33:03.453Z,37.10
2022-08-20T06:37:19.224Z,37.90
2022-08-20T06:41:36.133Z,39.20
2022-08-20T06:45:45.238Z,41.90
2022-08-20T06:49:53.050Z,34.80
2022-08-20T06:54:00.647Z,35.60
2022-08-20T06:58:15.634Z,35.30
2022-08-20T07:02:38.635Z,34.20
2022-08-20T07:06:48.404Z,35.00
2022-08-20T07:10:56.197Z,34.20
2022-08-20T07:15:03.665Z,33.70
2022-08-20T07:19:11.396Z,35.40
2022-08-20T07:23:19.107Z,36.10
2022-08-20T07:27:26.852Z,35.60
2022-08-20T07:31:52.448Z,35.70
2022-08-20T07:36:03.863Z,33.20
2022-08-20T07:40:15.902Z,32.80
2022-08-20T07:44:30.919Z,38.20
2022-08-20T07:48:42.105Z,36.30
2022-08-20T07:52:52.742Z,40.30
2022-08-20T07:57:04.105Z,35.70
2022-08-20T08:01:12.308Z,37.90
2022-08-20T08:05:20.076Z,34.30
2022-08-20T08:09:28.261Z,36.50
2022-08-20T08:13:38.777Z,36.30
2022-08-20T08:17:48.723Z,35.10
2022-08-20T08:21:58.628Z,35.50
2022-08-20T08:26:06.702Z,35.30
2022-08-20T08:30:23.933Z,31.60
2022-08-20T08:34:32.194Z,34.00
2022-08-20T08:38:45.953Z,31.80
2022-08-20T08:42:58.469Z,33.00
2022-08-20T08:47:14.093Z,31.10
2022-08-20T08:51:37.632Z,31.20
2022-08-20T08:55:45.578Z,29.00
2022-08-20T09:00:04.240Z,29.70
2022-08-20T09:04:13.448Z,29.90
2022-08-20T09:08:24.288Z,31.50
2022-08-20T09:12:33.399Z,33.70
2022-08-20T09:16:52.431Z,31.30
2022-08-20T09:21:01.410Z,28.60
2022-08-20T09:25:10.452Z,29.40
2022-08-20T09:29:18.489Z,27.50
2022-08-20T09:33:26.650Z,29.90
2022-08-20T09:37:37.695Z,28.00
2022-08-20T09:41:46.036Z,29.60
2022-08-20T09:45:53.829Z,31.80
2022-08-20T09:50:01.617Z,31.50
2022-08-20T09:54:10.736Z,30.70
2022-08-20T09:58:22.817Z,28.40
2022-08-20T10:02:31.090Z,28.40
2022-08-20T10:06:44.263Z,28.00
2022-08-20T10:10:56.000Z,29.10
2022-08-20T10:15:04.135Z,29.10
2022-08-20T10:19:11.963Z,25.40
2022-08-20T10:23:19.603Z,27.60
2022-08-20T10:27:27.225Z,26.30
2022-08-20T10:31:35.272Z,24.80
2022-08-20T10:35:42.818Z,26.60
2022-08-20T10:39:53.184Z,24.00
2022-08-20T10:44:01.164Z,24.90
2022-08-20T10:48:11.111Z,26.80
2022-08-20T10:52:19.688Z,29.50
2022-08-20T10:56:27.428Z,22.70
2022-08-20T11:00:35.219Z,23.50
2022-08-20T11:04:43.129Z,24.10
2022-08-20T11:08:50.775Z,23.00
2022-08-20T11:13:00.720Z,25.40
2022-08-20T11:17:11.625Z,24.50
2022-08-20T11:21:21.693Z,24.90
2022-08-20T11:25:29.781Z,24.10
2022-08-20T11:29:37.389Z,24.80
2022-08-20T11:33:45.874Z,24.00
2022-08-20T11:37:57.724Z,24.60
2022-08-20T11:42:06.038Z,23.50
2022-08-20T11:46:13.664Z,22.90
2022-08-20T11:50:25.602Z,24.50
2022-08-20T11:54:40.806Z,28.00
2022-08-20T11:58:48.912Z,24.00
2022-08-20T12:02:57.137Z,24.10
2022-08-20T12:07:15.036Z,23.90
2022-08-20T12:11:22.736Z,19.60
2022-08-20T12:15:30.168Z,23.70
2022-08-20T12:19:40.272Z,22.80
2022-08-20T12:23:48.973Z,22.40
2022-08-20T12:27:56.548Z,20.90
2022-08-20T12:32:05.488Z,19.90
2022-08-20T12:36:13.712Z,23.10
2022-08-20T12:40:31.764Z,19.60
2022-08-20T12:44:42.699Z,21.50
2022-08-20T12:48:50.135Z,24.70
2022-08-20T12:52:58.104Z,19.60
2022-08-20T12:57:08.017Z,19.00
2022-08-20T13:01:17.262Z,18.40
2022-08-20T13:05:25.008Z,20.80
2022-08-20T13:09:36.012Z,20.80
2022-08-20T13:13:48.527Z,20.70
2022-08-20T13:17:59.192Z,20.70
2022-08-20T13:22:09.108Z,21.30
2022-08-20T13:26:17.411Z,21.50
2022-08-20T13:30:25.624Z,23.20
2022-08-20T13:34:33.598Z,22.00
2022-08-20T13:38:41.762Z,21.70
2022-08-20T13:42:50.166Z,23.30
2022-08-20T13:46:58.268Z,22.00
2022-08-20T13:51:07.067Z,20.50
2022-08-20T13:55:16.827Z,24.00
2022-08-20T13:59:25.411Z,23.00
2022-08-20T14:03:36.112Z,23.50
2022-08-20T14:07:48.006Z,24.40
2022-08-20T14:11:55.691Z,23.50
2022-08-20T14:16:03.813Z,25.60
2022-08-20T14:20:16.086Z,23.60
2022-08-20T14:24:26.193Z,22.50
2022-08-20T14:28:34.625Z,24.00
2022-08-20T14:32:43.322Z,24.10
2022-08-20T14:36:50.813Z,23.00
2022-08-20T14:40:59.233Z,23.00
2022-08-20T14:45:09.151Z,21.50
2022-08-20T14:49:17.896Z,23.90
2022-08-20T14:53:25.850Z,24.90
2022-08-20T14:57:33.756Z,23.80
2022-08-20T15:01:41.728Z,21.50
2022-08-20T15:05:50.241Z,22.10
2022-08-20T15:09:58.799Z,12.00
2022-08-20T15:14:06.762Z,10.40
2022-08-20T15:18:14.394Z,10.90
2022-08-20T15:22:21.967Z,9.90
2022-08-20T15:26:31.962Z,11.60
2022-08-20T15:30:41.748Z,9.30
2022-08-20T15:34:52.189Z,11.80
2022-08-20T15:39:02.284Z,8.80
2022-08-20T15:43:10.259Z,9.70
2022-08-20T15:47:24.782Z,9.30
2022-08-20T15:51:38.464Z,8.90
2022-08-20T15:55:54.242Z,9.30
2022-08-20T16:00:10.741Z,9.70
2022-08-20T16:04:38.664Z,8.60
2022-08-20T16:09:00.962Z,10.50
2022-08-20T16:13:14.615Z,10.10
2022-08-20T16:17:30.799Z,10.60
2022-08-20T16:21:42.234Z,13.60
2022-08-20T16:25:58.608Z,15.10
2022-08-20T16:30:10.017Z,12.90
2022-08-20T16:34:33.332Z,13.00
2022-08-20T16:38:52.563Z,14.90
2022-08-20T16:43:04.707Z,14.30
2022-08-20T16:47:18.394Z,14.60
2022-08-20T16:51:40.958Z,14.50
2022-08-20T16:55:49.086Z,15.40
2022-08-20T17:00:08.245Z,17.70
2022-08-20T17:04:24.703Z,17.00
2022-08-20T17:08:36.159Z,19.10
2022-08-20T17:12:43.942Z,18.70
2022-08-20T17:16:55.210Z,19.10
2022-08-20T17:21:13.623Z,20.20
2022-08-20T17:25:30.707Z,23.00
2022-08-20T17:29:49.660Z,18.70
2022-08-20T17:33:57.970Z,18.80
2022-08-20T17:38:07.208Z,21.30
2022-08-20T17:42:19.361Z,20.60
2022-08-20T17:46:29.119Z,20.00
2022-08-20T17:50:40.956Z,18.50
2022-08-20T17:54:51.154Z,14.80
2022-08-20T17:59:05.883Z,15.70
2022-08-20T18:03:22.711Z,16.70
2022-08-20T18:07:40.192Z,16.50
2022-08-20T18:11:54.323Z,15.20
2022-08-20T18:16:04.092Z,16.60
2022-08-20T18:20:26.945Z,16.80
2022-08-20T18:24:40.384Z,17.70
2022-08-20T18:28:52.199Z,15.80
2022-08-20T18:33:06.962Z,16.70
2022-08-20T18:37:28.272Z,15.80
2022-08-20T18:41:38.442Z,16.90
2022-08-20T18:45:45.737Z,13.10
2022-08-20T18:50:16.101Z,16.50
2022-08-20T18:54:28.234Z,13.50
2022-08-20T18:58:38.536Z,11.70
2022-08-20T19:03:03.453Z,11.10
2022-08-20T19:07:15.493Z,10.20
2022-08-20T19:11:49.146Z,10.60
2022-08-20T19:16:00.921Z,10.00
2022-08-20T19:20:12.573Z,10.50
2022-08-20T19:24:25.889Z,12.00
2022-08-20T19:28:36.587Z,12.90
2022-08-20T19:32:54.040Z,11.90
2022-08-20T19:37:27.757Z,11.90
2022-08-20T19:41:37.106Z,12.60
2022-08-20T19:45:49.149Z,12.90
2022-08-20T19:50:04.903Z,12.60
2022-08-20T19:54:22.382Z,10.40
2022-08-20T19:58:31.888Z,8.30
2022-08-20T20:02:41.754Z,8.50
2022-08-20T20:06:51.958Z,8.00
2022-08-20T20:11:02.223Z,8.50
2022-08-20T20:15:11.158Z,8.40
2022-08-20T20:19:26.645Z,9.20
2022-08-20T20:23:41.649Z,8.70
2022-08-20T20:27:56.560Z,9.30
2022-08-20T20:32:14.225Z,9.60
2022-08-20T20:36:34.605Z,9.70
2022-08-20T20:40:49.262Z,9.60
2022-08-20T20:44:57.926Z,9.20
2022-08-20T20:49:17.851Z,9.40
2022-08-20T20:53:50.907Z,8.90
2022-08-20T20:58:02.713Z,10.10
2022-08-20T21:02:10.878Z,10.20
2022-08-20T21:06:18.555Z,10.20
2022-08-20T21:10:28.401Z,10.50
2022-08-20T21:14:36.210Z,10.60
2022-08-20T21:18:43.525Z,11.00
2022-08-20T21:22:51.279Z,10.70
2022-08-20T21:26:59.657Z,13.10
2022-08-20T21:31:07.563Z,12.40
2022-08-20T21:35:15.913Z,11.20
2022-08-20T21:39:23.701Z,11.30
2022-08-20T21:43:33.820Z,12.80
2022-08-20T21:47:44.061Z,12.80
2022-08-20T21:51:55.234Z,11.90
2022-08-20T21:56:02.923Z,12.00
2022-08-20T22:00:18.666Z,12.50
2022-08-20T22:04:27.775Z,12.30
2022-08-20T22:08:36.117Z,13.70
2022-08-20T22:12:43.805Z,13.40
2022-08-20T22:16:51.352Z,12.70
2022-08-20T22:20:59.241Z,12.30
2022-08-20T22:25:07.833Z,13.30
2022-08-20T22:29:19.724Z,14.70
2022-08-20T22:33:27.595Z,14.50
2022-08-20T22:37:36.381Z,14.50
2022-08-20T22:41:44.374Z,16.10
2022-08-20T22:45:54.481Z,18.20
2022-08-20T22:50:02.532Z,15.30
2022-08-20T22:54:12.424Z,15.20
2022-08-20T22:58:20.823Z,13.60
2022-08-20T23:02:39.249Z,14.90
2022-08-20T23:06:47.001Z,15.20
2022-08-20T23:10:57.377Z,15.10
2022-08-20T23:15:04.988Z,19.30
2022-08-20T23:19:15.189Z,22.20
2022-08-20T23:23:24.072Z,17.30
2022-08-20T23:27:32.718Z,18.80
2022-08-20T23:31:40.241Z,18.20
2022-08-20T23:35:47.904Z,16.20
2022-08-20T23:39:55.941Z,17.30
2022-08-20T23:44:03.852Z,20.50
2022-08-20T23:48:12.149Z,16.50
2022-08-20T23:52:20.862Z,15.90
2022-08-20T23:56:28.986Z,18.60
